sensor_id;sensor_type;location;lat;lon;timestamp;P1;durP1;ratioP1;P2;durP2;ratioP2
43801;SDS011;29429;51.074;13.764;2022-10-16T00:01:37;20.30;;;13.90;;
43801;SDS011;29429;51.074;13.764;2022-10-16T00:04:05;20.83;;;15.38;;
43801;SDS011;29429;51.074;13.764;2022-10-16T00:06:32;18.73;;;13.93;;
43801;SDS011;29429;51.074;13.764;2022-10-16T00:08:59;17.08;;;13.65;;
43801;SDS011;29429;51.074;13.764;2022-10-16T00:11:27;17.70;;;13.30;;
43801;SDS011;29429;51.074;13.764;2022-10-16T00:14:00;21.42;;;15.40;;
43801;SDS011;29429;51.074;13.764;2022-10-16T00:16:29;21.65;;;15.95;;
43801;SDS011;29429;51.074;13.764;2022-10-16T00:18:57;20.88;;;15.63;;
43801;SDS011;29429;51.074;13.764;2022-10-16T00:21:25;20.13;;;14.80;;
43801;SDS011;29429;51.074;13.764;2022-10-16T00:23:55;20.65;;;15.75;;
43801;SDS011;29429;51.074;13.764;2022-10-16T00:26:26;24.38;;;16.20;;
43801;SDS011;29429;51.074;13.764;2022-10-16T00:28:56;18.17;;;13.82;;
43801;SDS011;29429;51.074;13.764;2022-10-16T00:31:23;21.63;;;15.30;;
43801;SDS011;29429;51.074;13.764;2022-10-16T00:33:51;18.98;;;13.98;;
43801;SDS011;29429;51.074;13.764;2022-10-16T00:36:19;19.25;;;15.00;;
43801;SDS011;29429;51.074;13.764;2022-10-16T00:38:50;20.08;;;15.32;;
43801;SDS011;29429;51.074;13.764;2022-10-16T00:41:21;18.73;;;14.77;;
43801;SDS011;29429;51.074;13.764;2022-10-16T00:43:52;20.13;;;14.70;;
43801;SDS011;29429;51.074;13.764;2022-10-16T00:46:38;19.92;;;14.55;;
43801;SDS011;29429;51.074;13.764;2022-10-16T00:49:15;19.83;;;15.75;;
43801;SDS011;29429;51.074;13.764;2022-10-16T00:51:47;20.25;;;15.15;;
43801;SDS011;29429;51.074;13.764;2022-10-16T00:54:23;20.77;;;15.63;;
43801;SDS011;29429;51.074;13.764;2022-10-16T00:56:54;18.38;;;14.20;;
43801;SDS011;29429;51.074;13.764;2022-10-16T00:59:27;18.95;;;14.27;;
43801;SDS011;29429;51.074;13.764;2022-10-16T01:02:07;21.15;;;15.50;;
43801;SDS011;29429;51.074;13.764;2022-10-16T01:04:40;17.13;;;14.05;;
43801;SDS011;29429;51.074;13.764;2022-10-16T01:07:24;17.38;;;14.45;;
43801;SDS011;29429;51.074;13.764;2022-10-16T01:12:45;19.33;;;15.35;;
43801;SDS011;29429;51.074;13.764;2022-10-16T01:15:25;16.95;;;14.00;;
43801;SDS011;29429;51.074;13.764;2022-10-16T01:18:17;15.82;;;13.30;;
43801;SDS011;29429;51.074;13.764;2022-10-16T01:29:07;16.00;;;13.50;;
43801;SDS011;29429;51.074;13.764;2022-10-16T01:31:44;15.20;;;12.73;;
43801;SDS011;29429;51.074;13.764;2022-10-16T01:34:22;15.63;;;13.18;;
43801;SDS011;29429;51.074;13.764;2022-10-16T01:37:09;15.93;;;13.15;;
43801;SDS011;29429;51.074;13.764;2022-10-16T01:39:45;15.32;;;12.80;;
43801;SDS011;29429;51.074;13.764;2022-10-16T01:42:17;14.07;;;12.55;;
43801;SDS011;29429;51.074;13.764;2022-10-16T01:44:50;16.92;;;13.68;;
43801;SDS011;29429;51.074;13.764;2022-10-16T01:47:21;15.68;;;12.30;;
43801;SDS011;29429;51.074;13.764;2022-10-16T01:49:53;15.05;;;13.45;;
43801;SDS011;29429;51.074;13.764;2022-10-16T01:52:25;16.77;;;14.25;;
43801;SDS011;29429;51.074;13.764;2022-10-16T01:54:55;20.13;;;14.73;;
43801;SDS011;29429;51.074;13.764;2022-10-16T01:57:25;16.73;;;13.45;;
43801;SDS011;29429;51.074;13.764;2022-10-16T01:59:58;15.52;;;12.55;;
43801;SDS011;29429;51.074;13.764;2022-10-16T02:02:37;15.80;;;13.48;;
43801;SDS011;29429;51.074;13.764;2022-10-16T02:07:56;17.00;;;12.35;;
43801;SDS011;29429;51.074;13.764;2022-10-16T02:10:28;14.30;;;12.35;;
43801;SDS011;29429;51.074;13.764;2022-10-16T02:13:15;13.63;;;12.23;;
43801;SDS011;29429;51.074;13.764;2022-10-16T02:15:56;13.95;;;12.27;;
43801;SDS011;29429;51.074;13.764;2022-10-16T02:18:23;14.63;;;12.85;;
43801;SDS011;29429;51.074;13.764;2022-10-16T02:20:57;17.20;;;14.45;;
43801;SDS011;29429;51.074;13.764;2022-10-16T02:26:42;14.90;;;13.07;;
43801;SDS011;29429;51.074;13.764;2022-10-16T02:29:18;14.48;;;13.00;;
43801;SDS011;29429;51.074;13.764;2022-10-16T02:31:57;14.73;;;12.85;;
43801;SDS011;29429;51.074;13.764;2022-10-16T02:34:29;14.82;;;13.30;;
43801;SDS011;29429;51.074;13.764;2022-10-16T02:36:59;15.88;;;14.18;;
43801;SDS011;29429;51.074;13.764;2022-10-16T02:39:29;17.75;;;14.65;;
43801;SDS011;29429;51.074;13.764;2022-10-16T02:41:57;14.68;;;13.15;;
43801;SDS011;29429;51.074;13.764;2022-10-16T02:44:24;15.40;;;13.80;;
43801;SDS011;29429;51.074;13.764;2022-10-16T02:46:51;16.10;;;14.25;;
43801;SDS011;29429;51.074;13.764;2022-10-16T02:49:18;15.88;;;14.20;;
43801;SDS011;29429;51.074;13.764;2022-10-16T02:51:45;16.25;;;14.48;;
43801;SDS011;29429;51.074;13.764;2022-10-16T02:54:11;15.43;;;13.73;;
43801;SDS011;29429;51.074;13.764;2022-10-16T02:56:39;16.30;;;14.38;;
43801;SDS011;29429;51.074;13.764;2022-10-16T02:59:06;17.80;;;15.20;;
43801;SDS011;29429;51.074;13.764;2022-10-16T03:01:32;15.73;;;13.82;;
43801;SDS011;29429;51.074;13.764;2022-10-16T03:03:59;15.27;;;13.57;;
43801;SDS011;29429;51.074;13.764;2022-10-16T03:06:26;16.55;;;13.63;;
43801;SDS011;29429;51.074;13.764;2022-10-16T03:08:53;16.52;;;14.73;;
43801;SDS011;29429;51.074;13.764;2022-10-16T03:11:20;17.65;;;14.18;;
43801;SDS011;29429;51.074;13.764;2022-10-16T03:13:47;17.08;;;14.15;;
43801;SDS011;29429;51.074;13.764;2022-10-16T03:16:13;16.60;;;14.68;;
43801;SDS011;29429;51.074;13.764;2022-10-16T03:18:40;17.20;;;15.38;;
43801;SDS011;29429;51.074;13.764;2022-10-16T03:21:07;16.40;;;14.15;;
43801;SDS011;29429;51.074;13.764;2022-10-16T03:23:34;15.40;;;13.77;;
43801;SDS011;29429;51.074;13.764;2022-10-16T03:26:01;15.90;;;13.82;;
43801;SDS011;29429;51.074;13.764;2022-10-16T03:28:28;13.73;;;12.30;;
43801;SDS011;29429;51.074;13.764;2022-10-16T03:30:55;15.40;;;13.57;;
43801;SDS011;29429;51.074;13.764;2022-10-16T03:33:22;14.20;;;12.70;;
43801;SDS011;29429;51.074;13.764;2022-10-16T03:35:53;16.38;;;14.20;;
43801;SDS011;29429;51.074;13.764;2022-10-16T03:38:21;17.05;;;13.38;;
43801;SDS011;29429;51.074;13.764;2022-10-16T03:40:48;14.02;;;12.38;;
43801;SDS011;29429;51.074;13.764;2022-10-16T03:43:15;14.70;;;12.77;;
43801;SDS011;29429;51.074;13.764;2022-10-16T03:45:42;15.77;;;13.18;;
43801;SDS011;29429;51.074;13.764;2022-10-16T03:48:09;14.75;;;12.70;;
43801;SDS011;29429;51.074;13.764;2022-10-16T03:50:36;15.75;;;13.25;;
43801;SDS011;29429;51.074;13.764;2022-10-16T03:53:03;15.52;;;13.20;;
43801;SDS011;29429;51.074;13.764;2022-10-16T03:55:30;15.00;;;13.40;;
43801;SDS011;29429;51.074;13.764;2022-10-16T03:57:57;15.30;;;12.80;;
43801;SDS011;29429;51.074;13.764;2022-10-16T04:00:24;15.32;;;13.55;;
43801;SDS011;29429;51.074;13.764;2022-10-16T04:02:51;15.55;;;13.27;;
43801;SDS011;29429;51.074;13.764;2022-10-16T04:05:18;15.02;;;12.18;;
43801;SDS011;29429;51.074;13.764;2022-10-16T04:07:45;16.60;;;13.85;;
43801;SDS011;29429;51.074;13.764;2022-10-16T04:10:12;20.33;;;14.25;;
43801;SDS011;29429;51.074;13.764;2022-10-16T04:12:39;17.83;;;15.27;;
43801;SDS011;29429;51.074;13.764;2022-10-16T04:15:06;17.27;;;14.10;;
43801;SDS011;29429;51.074;13.764;2022-10-16T04:17:33;15.32;;;12.95;;
43801;SDS011;29429;51.074;13.764;2022-10-16T04:20:00;16.92;;;13.95;;
43801;SDS011;29429;51.074;13.764;2022-10-16T04:22:27;15.98;;;13.68;;
43801;SDS011;29429;51.074;13.764;2022-10-16T04:24:54;16.83;;;13.90;;
43801;SDS011;29429;51.074;13.764;2022-10-16T04:27:21;15.52;;;13.80;;
43801;SDS011;29429;51.074;13.764;2022-10-16T04:29:48;15.57;;;13.77;;
43801;SDS011;29429;51.074;13.764;2022-10-16T04:32:14;13.90;;;12.25;;
43801;SDS011;29429;51.074;13.764;2022-10-16T04:34:42;15.75;;;13.18;;
43801;SDS011;29429;51.074;13.764;2022-10-16T04:37:08;14.85;;;13.35;;
43801;SDS011;29429;51.074;13.764;2022-10-16T04:39:35;16.95;;;14.80;;
43801;SDS011;29429;51.074;13.764;2022-10-16T04:42:02;15.55;;;13.93;;
43801;SDS011;29429;51.074;13.764;2022-10-16T04:44:29;15.32;;;13.65;;
43801;SDS011;29429;51.074;13.764;2022-10-16T04:46:56;15.80;;;13.90;;
43801;SDS011;29429;51.074;13.764;2022-10-16T04:49:23;16.27;;;14.55;;
43801;SDS011;29429;51.074;13.764;2022-10-16T04:51:50;15.73;;;14.02;;
43801;SDS011;29429;51.074;13.764;2022-10-16T04:54:17;16.65;;;14.95;;
43801;SDS011;29429;51.074;13.764;2022-10-16T04:56:44;18.70;;;15.40;;
43801;SDS011;29429;51.074;13.764;2022-10-16T04:59:14;18.38;;;15.40;;
43801;SDS011;29429;51.074;13.764;2022-10-16T05:01:41;16.48;;;14.55;;
43801;SDS011;29429;51.074;13.764;2022-10-16T05:04:08;20.10;;;16.73;;
43801;SDS011;29429;51.074;13.764;2022-10-16T05:06:36;18.73;;;16.00;;
43801;SDS011;29429;51.074;13.764;2022-10-16T05:09:05;16.50;;;14.70;;
43801;SDS011;29429;51.074;13.764;2022-10-16T05:11:32;17.55;;;15.65;;
43801;SDS011;29429;51.074;13.764;2022-10-16T05:14:00;17.90;;;16.00;;
43801;SDS011;29429;51.074;13.764;2022-10-16T05:16:27;18.33;;;16.17;;
43801;SDS011;29429;51.074;13.764;2022-10-16T05:18:54;17.17;;;15.38;;
43801;SDS011;29429;51.074;13.764;2022-10-16T05:21:35;17.67;;;15.50;;
43801;SDS011;29429;51.074;13.764;2022-10-16T05:24:02;16.92;;;15.13;;
43801;SDS011;29429;51.074;13.764;2022-10-16T05:26:29;18.83;;;15.55;;
43801;SDS011;29429;51.074;13.764;2022-10-16T05:28:56;17.60;;;15.05;;
43801;SDS011;29429;51.074;13.764;2022-10-16T05:31:23;19.25;;;15.60;;
43801;SDS011;29429;51.074;13.764;2022-10-16T05:33:50;18.23;;;14.88;;
43801;SDS011;29429;51.074;13.764;2022-10-16T05:36:16;17.58;;;15.20;;
43801;SDS011;29429;51.074;13.764;2022-10-16T05:38:44;16.10;;;14.27;;
43801;SDS011;29429;51.074;13.764;2022-10-16T05:41:11;20.13;;;15.77;;
43801;SDS011;29429;51.074;13.764;2022-10-16T05:43:38;16.52;;;14.73;;
43801;SDS011;29429;51.074;13.764;2022-10-16T05:46:05;20.55;;;15.50;;
43801;SDS011;29429;51.074;13.764;2022-10-16T05:48:32;20.45;;;16.13;;
43801;SDS011;29429;51.074;13.764;2022-10-16T05:51:00;19.92;;;15.82;;
43801;SDS011;29429;51.074;13.764;2022-10-16T05:53:33;18.90;;;15.50;;
43801;SDS011;29429;51.074;13.764;2022-10-16T05:56:03;16.45;;;14.63;;
43801;SDS011;29429;51.074;13.764;2022-10-16T05:58:34;16.90;;;15.07;;
43801;SDS011;29429;51.074;13.764;2022-10-16T06:01:03;16.73;;;14.80;;
43801;SDS011;29429;51.074;13.764;2022-10-16T06:03:33;17.73;;;15.02;;
43801;SDS011;29429;51.074;13.764;2022-10-16T06:06:07;17.02;;;15.10;;
43801;SDS011;29429;51.074;13.764;2022-10-16T06:08:43;16.67;;;14.85;;
43801;SDS011;29429;51.074;13.764;2022-10-16T06:11:12;19.40;;;16.02;;
43801;SDS011;29429;51.074;13.764;2022-10-16T06:13:44;16.38;;;14.43;;
43801;SDS011;29429;51.074;13.764;2022-10-16T06:16:15;15.93;;;14.32;;
43801;SDS011;29429;51.074;13.764;2022-10-16T06:18:42;16.25;;;14.48;;
43801;SDS011;29429;51.074;13.764;2022-10-16T06:21:11;17.27;;;15.30;;
43801;SDS011;29429;51.074;13.764;2022-10-16T06:23:44;15.88;;;13.77;;
43801;SDS011;29429;51.074;13.764;2022-10-16T06:26:15;15.93;;;13.00;;
43801;SDS011;29429;51.074;13.764;2022-10-16T06:28:45;16.98;;;13.90;;
43801;SDS011;29429;51.074;13.764;2022-10-16T06:31:13;14.57;;;12.98;;
43801;SDS011;29429;51.074;13.764;2022-10-16T06:33:40;16.65;;;14.95;;
43801;SDS011;29429;51.074;13.764;2022-10-16T06:36:08;16.35;;;14.02;;
43801;SDS011;29429;51.074;13.764;2022-10-16T06:38:38;15.45;;;13.85;;
43801;SDS011;29429;51.074;13.764;2022-10-16T06:41:06;15.57;;;13.98;;
43801;SDS011;29429;51.074;13.764;2022-10-16T06:43:39;14.23;;;12.77;;
43801;SDS011;29429;51.074;13.764;2022-10-16T06:46:07;17.10;;;14.40;;
43801;SDS011;29429;51.074;13.764;2022-10-16T06:48:37;16.05;;;13.32;;
43801;SDS011;29429;51.074;13.764;2022-10-16T06:51:17;17.45;;;15.55;;
43801;SDS011;29429;51.074;13.764;2022-10-16T06:53:50;17.50;;;14.90;;
43801;SDS011;29429;51.074;13.764;2022-10-16T06:56:29;18.13;;;16.20;;
43801;SDS011;29429;51.074;13.764;2022-10-16T06:58:58;18.95;;;16.95;;
43801;SDS011;29429;51.074;13.764;2022-10-16T07:01:26;18.90;;;17.00;;
43801;SDS011;29429;51.074;13.764;2022-10-16T07:03:54;17.95;;;16.02;;
43801;SDS011;29429;51.074;13.764;2022-10-16T07:06:22;17.77;;;15.88;;
43801;SDS011;29429;51.074;13.764;2022-10-16T07:08:51;17.13;;;15.32;;
43801;SDS011;29429;51.074;13.764;2022-10-16T07:11:19;17.02;;;15.25;;
43801;SDS011;29429;51.074;13.764;2022-10-16T07:13:50;16.85;;;15.15;;
43801;SDS011;29429;51.074;13.764;2022-10-16T07:16:25;17.10;;;15.20;;
43801;SDS011;29429;51.074;13.764;2022-10-16T07:18:55;16.80;;;15.00;;
43801;SDS011;29429;51.074;13.764;2022-10-16T07:21:26;16.48;;;14.68;;
43801;SDS011;29429;51.074;13.764;2022-10-16T07:23:56;20.65;;;15.25;;
43801;SDS011;29429;51.074;13.764;2022-10-16T07:26:27;17.08;;;15.38;;
43801;SDS011;29429;51.074;13.764;2022-10-16T07:28:57;17.77;;;15.88;;
43801;SDS011;29429;51.074;13.764;2022-10-16T07:31:24;17.38;;;15.68;;
43801;SDS011;29429;51.074;13.764;2022-10-16T07:33:52;17.70;;;15.80;;
43801;SDS011;29429;51.074;13.764;2022-10-16T07:36:20;16.25;;;14.65;;
43801;SDS011;29429;51.074;13.764;2022-10-16T07:38:47;17.17;;;15.52;;
43801;SDS011;29429;51.074;13.764;2022-10-16T07:41:18;17.05;;;14.98;;
43801;SDS011;29429;51.074;13.764;2022-10-16T07:43:46;15.90;;;14.32;;
43801;SDS011;29429;51.074;13.764;2022-10-16T07:46:16;16.63;;;15.00;;
43801;SDS011;29429;51.074;13.764;2022-10-16T07:48:46;17.00;;;15.30;;
43801;SDS011;29429;51.074;13.764;2022-10-16T07:51:15;16.00;;;14.40;;
43801;SDS011;29429;51.074;13.764;2022-10-16T07:56:17;15.05;;;13.20;;
43801;SDS011;29429;51.074;13.764;2022-10-16T07:58:45;15.65;;;13.75;;
43801;SDS011;29429;51.074;13.764;2022-10-16T08:01:13;15.55;;;13.90;;
43801;SDS011;29429;51.074;13.764;2022-10-16T08:03:46;14.82;;;13.40;;
43801;SDS011;29429;51.074;13.764;2022-10-16T08:06:16;15.95;;;14.35;;
43801;SDS011;29429;51.074;13.764;2022-10-16T08:08:52;15.20;;;13.70;;
43801;SDS011;29429;51.074;13.764;2022-10-16T08:11:19;15.23;;;13.63;;
43801;SDS011;29429;51.074;13.764;2022-10-16T08:13:46;15.20;;;13.68;;
43801;SDS011;29429;51.074;13.764;2022-10-16T08:16:13;14.85;;;13.45;;
43801;SDS011;29429;51.074;13.764;2022-10-16T08:18:40;14.35;;;12.95;;
43801;SDS011;29429;51.074;13.764;2022-10-16T08:21:15;13.85;;;12.45;;
43801;SDS011;29429;51.074;13.764;2022-10-16T08:23:46;13.15;;;11.95;;
43801;SDS011;29429;51.074;13.764;2022-10-16T08:26:23;12.52;;;11.30;;
43801;SDS011;29429;51.074;13.764;2022-10-16T08:28:51;11.50;;;10.40;;
43801;SDS011;29429;51.074;13.764;2022-10-16T08:31:18;12.60;;;11.10;;
43801;SDS011;29429;51.074;13.764;2022-10-16T08:33:46;11.60;;;10.52;;
43801;SDS011;29429;51.074;13.764;2022-10-16T08:36:14;11.30;;;10.20;;
43801;SDS011;29429;51.074;13.764;2022-10-16T08:38:42;10.93;;;9.77;;
43801;SDS011;29429;51.074;13.764;2022-10-16T08:41:15;11.68;;;10.48;;
43801;SDS011;29429;51.074;13.764;2022-10-16T08:47:15;9.75;;;8.80;;
43801;SDS011;29429;51.074;13.764;2022-10-16T08:50:08;9.13;;;8.25;;
43801;SDS011;29429;51.074;13.764;2022-10-16T08:52:40;10.13;;;9.15;;
43801;SDS011;29429;51.074;13.764;2022-10-16T08:58:21;9.00;;;8.20;;
43801;SDS011;29429;51.074;13.764;2022-10-16T09:00:53;10.38;;;7.82;;
43801;SDS011;29429;51.074;13.764;2022-10-16T09:19:58;9.40;;;8.18;;
43801;SDS011;29429;51.074;13.764;2022-10-16T09:22:38;9.43;;;8.43;;
43801;SDS011;29429;51.074;13.764;2022-10-16T09:25:13;8.60;;;7.90;;
43801;SDS011;29429;51.074;13.764;2022-10-16T09:27:47;8.75;;;7.93;;
43801;SDS011;29429;51.074;13.764;2022-10-16T09:30:19;8.32;;;7.53;;
43801;SDS011;29429;51.074;13.764;2022-10-16T09:32:49;8.10;;;7.30;;
43801;SDS011;29429;51.074;13.764;2022-10-16T09:35:20;8.32;;;7.57;;
43801;SDS011;29429;51.074;13.764;2022-10-16T09:37:57;8.77;;;7.97;;
43801;SDS011;29429;51.074;13.764;2022-10-16T09:40:32;8.98;;;7.70;;
43801;SDS011;29429;51.074;13.764;2022-10-16T09:45:56;9.00;;;7.97;;
43801;SDS011;29429;51.074;13.764;2022-10-16T09:48:39;8.50;;;7.60;;
43801;SDS011;29429;51.074;13.764;2022-10-16T09:51:16;7.53;;;6.75;;
43801;SDS011;29429;51.074;13.764;2022-10-16T09:53:59;7.78;;;7.00;;
43801;SDS011;29429;51.074;13.764;2022-10-16T09:56:36;7.93;;;7.10;;
43801;SDS011;29429;51.074;13.764;2022-10-16T09:59:12;7.03;;;6.38;;
43801;SDS011;29429;51.074;13.764;2022-10-16T10:01:50;6.93;;;6.25;;
43801;SDS011;29429;51.074;13.764;2022-10-16T10:04:20;6.93;;;6.32;;
43801;SDS011;29429;51.074;13.764;2022-10-16T10:06:53;6.13;;;5.60;;
43801;SDS011;29429;51.074;13.764;2022-10-16T10:09:26;5.90;;;5.40;;
43801;SDS011;29429;51.074;13.764;2022-10-16T10:12:02;5.28;;;4.38;;
43801;SDS011;29429;51.074;13.764;2022-10-16T10:14:42;4.88;;;4.07;;
43801;SDS011;29429;51.074;13.764;2022-10-16T10:17:15;5.03;;;3.85;;
43801;SDS011;29429;51.074;13.764;2022-10-16T10:19:46;5.53;;;3.58;;
43801;SDS011;29429;51.074;13.764;2022-10-16T10:22:44;3.85;;;3.55;;
43801;SDS011;29429;51.074;13.764;2022-10-16T10:27:50;4.63;;;4.03;;
43801;SDS011;29429;51.074;13.764;2022-10-16T10:36:20;4.57;;;3.67;;
43801;SDS011;29429;51.074;13.764;2022-10-16T10:44:26;3.35;;;1.92;;
43801;SDS011;29429;51.074;13.764;2022-10-16T10:47:23;3.10;;;1.30;;
43801;SDS011;29429;51.074;13.764;2022-10-16T10:50:25;2.10;;;1.58;;
43801;SDS011;29429;51.074;13.764;2022-10-16T10:56:00;2.67;;;0.98;;
43801;SDS011;29429;51.074;13.764;2022-10-16T10:58:52;1.88;;;1.10;;
43801;SDS011;29429;51.074;13.764;2022-10-16T11:04:58;1.13;;;0.70;;
43801;SDS011;29429;51.074;13.764;2022-10-16T11:07:51;1.40;;;0.60;;
43801;SDS011;29429;51.074;13.764;2022-10-16T11:10:38;0.20;;;0.20;;
43801;SDS011;29429;51.074;13.764;2022-10-16T11:16:06;0.88;;;0.60;;
43801;SDS011;29429;51.074;13.764;2022-10-16T11:27:56;0.80;;;0.52;;
43801;SDS011;29429;51.074;13.764;2022-10-16T11:33:41;1.08;;;0.60;;
43801;SDS011;29429;51.074;13.764;2022-10-16T11:36:16;1.08;;;0.60;;
43801;SDS011;29429;51.074;13.764;2022-10-16T11:41:53;2.60;;;0.55;;
43801;SDS011;29429;51.074;13.764;2022-10-16T11:47:35;1.25;;;0.52;;
43801;SDS011;29429;51.074;13.764;2022-10-16T11:56:21;1.33;;;0.57;;
43801;SDS011;29429;51.074;13.764;2022-10-16T11:58:51;1.00;;;0.60;;
43801;SDS011;29429;51.074;13.764;2022-10-16T12:04:56;0.85;;;0.40;;
43801;SDS011;29429;51.074;13.764;2022-10-16T12:08:07;0.47;;;0.47;;
43801;SDS011;29429;51.074;13.764;2022-10-16T12:10:39;0.93;;;0.50;;
43801;SDS011;29429;51.074;13.764;2022-10-16T12:18:45;0.45;;;0.40;;
43801;SDS011;29429;51.074;13.764;2022-10-16T12:21:14;0.75;;;0.50;;
43801;SDS011;29429;51.074;13.764;2022-10-16T12:23:52;1.65;;;0.40;;
43801;SDS011;29429;51.074;13.764;2022-10-16T12:26:26;0.60;;;0.50;;
43801;SDS011;29429;51.074;13.764;2022-10-16T12:32:00;1.10;;;0.70;;
43801;SDS011;29429;51.074;13.764;2022-10-16T12:34:43;4.13;;;1.35;;
43801;SDS011;29429;51.074;13.764;2022-10-16T12:37:15;2.03;;;1.00;;
43801;SDS011;29429;51.074;13.764;2022-10-16T12:40:31;1.73;;;0.82;;
43801;SDS011;29429;51.074;13.764;2022-10-16T12:45:59;3.65;;;0.68;;
43801;SDS011;29429;51.074;13.764;2022-10-16T12:48:49;1.08;;;0.50;;
43801;SDS011;29429;51.074;13.764;2022-10-16T12:51:36;1.77;;;1.00;;
43801;SDS011;29429;51.074;13.764;2022-10-16T13:12:08;1.25;;;0.82;;
43801;SDS011;29429;51.074;13.764;2022-10-16T13:20:46;0.85;;;0.52;;
43801;SDS011;29429;51.074;13.764;2022-10-16T13:26:49;1.55;;;0.40;;
43801;SDS011;29429;51.074;13.764;2022-10-16T13:29:33;3.40;;;0.70;;
43801;SDS011;29429;51.074;13.764;2022-10-16T13:32:01;0.90;;;0.50;;
43801;SDS011;29429;51.074;13.764;2022-10-16T13:34:44;2.13;;;0.40;;
43801;SDS011;29429;51.074;13.764;2022-10-16T13:37:18;0.55;;;0.45;;
43801;SDS011;29429;51.074;13.764;2022-10-16T13:39:49;0.73;;;0.50;;
43801;SDS011;29429;51.074;13.764;2022-10-16T13:42:23;1.15;;;0.50;;
43801;SDS011;29429;51.074;13.764;2022-10-16T13:47:26;1.00;;;0.60;;
43801;SDS011;29429;51.074;13.764;2022-10-16T13:50:08;1.75;;;0.70;;
43801;SDS011;29429;51.074;13.764;2022-10-16T13:52:44;1.75;;;0.60;;
43801;SDS011;29429;51.074;13.764;2022-10-16T13:55:16;1.52;;;0.70;;
43801;SDS011;29429;51.074;13.764;2022-10-16T13:57:44;1.13;;;0.70;;
43801;SDS011;29429;51.074;13.764;2022-10-16T14:00:22;1.42;;;0.73;;
43801;SDS011;29429;51.074;13.764;2022-10-16T14:02:58;1.77;;;0.80;;
43801;SDS011;29429;51.074;13.764;2022-10-16T14:05:45;3.05;;;1.10;;
43801;SDS011;29429;51.074;13.764;2022-10-16T14:08:17;2.03;;;1.05;;
43801;SDS011;29429;51.074;13.764;2022-10-16T14:10:52;2.20;;;0.98;;
43801;SDS011;29429;51.074;13.764;2022-10-16T14:13:37;1.23;;;0.88;;
43801;SDS011;29429;51.074;13.764;2022-10-16T14:16:16;1.45;;;0.90;;
43801;SDS011;29429;51.074;13.764;2022-10-16T14:18:57;2.03;;;0.70;;
43801;SDS011;29429;51.074;13.764;2022-10-16T14:21:31;1.48;;;0.60;;
43801;SDS011;29429;51.074;13.764;2022-10-16T14:24:10;1.98;;;0.63;;
43801;SDS011;29429;51.074;13.764;2022-10-16T14:26:58;2.95;;;0.73;;
43801;SDS011;29429;51.074;13.764;2022-10-16T14:29:26;1.45;;;0.98;;
43801;SDS011;29429;51.074;13.764;2022-10-16T14:32:00;3.00;;;1.50;;
43801;SDS011;29429;51.074;13.764;2022-10-16T14:34:35;2.70;;;1.30;;
43801;SDS011;29429;51.074;13.764;2022-10-16T14:40:02;1.70;;;0.80;;
43801;SDS011;29429;51.074;13.764;2022-10-16T14:42:30;1.70;;;1.15;;
43801;SDS011;29429;51.074;13.764;2022-10-16T14:44:57;2.25;;;1.27;;
43801;SDS011;29429;51.074;13.764;2022-10-16T14:47:25;1.80;;;1.33;;
43801;SDS011;29429;51.074;13.764;2022-10-16T14:49:53;2.90;;;0.93;;
43801;SDS011;29429;51.074;13.764;2022-10-16T14:52:22;1.85;;;1.20;;
43801;SDS011;29429;51.074;13.764;2022-10-16T14:54:49;1.88;;;1.17;;
43801;SDS011;29429;51.074;13.764;2022-10-16T14:57:22;1.23;;;1.02;;
43801;SDS011;29429;51.074;13.764;2022-10-16T14:59:54;1.10;;;1.00;;
43801;SDS011;29429;51.074;13.764;2022-10-16T15:02:28;1.20;;;0.95;;
43801;SDS011;29429;51.074;13.764;2022-10-16T15:05:10;1.60;;;1.20;;
43801;SDS011;29429;51.074;13.764;2022-10-16T15:07:58;2.08;;;1.38;;
43801;SDS011;29429;51.074;13.764;2022-10-16T15:10:25;2.05;;;1.00;;
43801;SDS011;29429;51.074;13.764;2022-10-16T15:12:54;1.75;;;1.00;;
43801;SDS011;29429;51.074;13.764;2022-10-16T15:15:32;1.55;;;0.90;;
43801;SDS011;29429;51.074;13.764;2022-10-16T15:18:08;1.17;;;1.00;;
43801;SDS011;29429;51.074;13.764;2022-10-16T15:20:36;2.70;;;1.08;;
43801;SDS011;29429;51.074;13.764;2022-10-16T15:23:15;2.35;;;1.13;;
43801;SDS011;29429;51.074;13.764;2022-10-16T15:25:47;2.53;;;1.38;;
43801;SDS011;29429;51.074;13.764;2022-10-16T15:28:17;1.23;;;0.82;;
43801;SDS011;29429;51.074;13.764;2022-10-16T15:30:48;1.45;;;0.88;;
43801;SDS011;29429;51.074;13.764;2022-10-16T15:33:25;2.58;;;1.02;;
43801;SDS011;29429;51.074;13.764;2022-10-16T15:36:04;3.95;;;1.40;;
43801;SDS011;29429;51.074;13.764;2022-10-16T15:38:31;1.92;;;1.00;;
43801;SDS011;29429;51.074;13.764;2022-10-16T15:40:58;1.40;;;1.25;;
43801;SDS011;29429;51.074;13.764;2022-10-16T15:43:25;3.38;;;1.35;;
43801;SDS011;29429;51.074;13.764;2022-10-16T15:46:17;1.80;;;1.00;;
43801;SDS011;29429;51.074;13.764;2022-10-16T15:48:40;2.95;;;1.40;;
43801;SDS011;29429;51.074;13.764;2022-10-16T15:51:07;3.53;;;1.33;;
43801;SDS011;29429;51.074;13.764;2022-10-16T15:53:35;2.83;;;1.75;;
43801;SDS011;29429;51.074;13.764;2022-10-16T15:56:03;1.77;;;1.10;;
43801;SDS011;29429;51.074;13.764;2022-10-16T15:58:31;3.17;;;1.25;;
43801;SDS011;29429;51.074;13.764;2022-10-16T16:01:00;3.45;;;1.38;;
43801;SDS011;29429;51.074;13.764;2022-10-16T16:03:28;2.28;;;1.27;;
43801;SDS011;29429;51.074;13.764;2022-10-16T16:05:57;3.05;;;1.40;;
43801;SDS011;29429;51.074;13.764;2022-10-16T16:08:29;2.97;;;1.20;;
43801;SDS011;29429;51.074;13.764;2022-10-16T16:13:28;1.55;;;1.10;;
43801;SDS011;29429;51.074;13.764;2022-10-16T16:15:55;6.07;;;3.67;;
43801;SDS011;29429;51.074;13.764;2022-10-16T16:18:22;9.25;;;5.07;;
43801;SDS011;29429;51.074;13.764;2022-10-16T16:20:50;7.22;;;4.43;;
43801;SDS011;29429;51.074;13.764;2022-10-16T16:23:18;6.47;;;3.90;;
43801;SDS011;29429;51.074;13.764;2022-10-16T16:26:01;5.20;;;2.80;;
43801;SDS011;29429;51.074;13.764;2022-10-16T16:28:48;2.50;;;1.98;;
43801;SDS011;29429;51.074;13.764;2022-10-16T16:31:15;3.70;;;1.95;;
43801;SDS011;29429;51.074;13.764;2022-10-16T16:33:41;4.80;;;1.90;;
43801;SDS011;29429;51.074;13.764;2022-10-16T16:36:08;4.88;;;1.58;;
43801;SDS011;29429;51.074;13.764;2022-10-16T16:38:41;4.53;;;2.00;;
43801;SDS011;29429;51.074;13.764;2022-10-16T16:41:15;3.05;;;1.42;;
43801;SDS011;29429;51.074;13.764;2022-10-16T16:43:48;1.73;;;1.30;;
43801;SDS011;29429;51.074;13.764;2022-10-16T16:46:17;1.80;;;1.40;;
43801;SDS011;29429;51.074;13.764;2022-10-16T16:48:44;2.72;;;1.50;;
43801;SDS011;29429;51.074;13.764;2022-10-16T16:51:14;5.00;;;1.80;;
43801;SDS011;29429;51.074;13.764;2022-10-16T16:53:51;1.80;;;1.50;;
43801;SDS011;29429;51.074;13.764;2022-10-16T16:56:20;3.45;;;1.80;;
43801;SDS011;29429;51.074;13.764;2022-10-16T16:58:50;3.60;;;1.67;;
43801;SDS011;29429;51.074;13.764;2022-10-16T17:01:21;7.03;;;2.03;;
43801;SDS011;29429;51.074;13.764;2022-10-16T17:03:51;3.95;;;1.70;;
43801;SDS011;29429;51.074;13.764;2022-10-16T17:06:22;3.05;;;1.20;;
43801;SDS011;29429;51.074;13.764;2022-10-16T17:08:52;3.17;;;2.33;;
43801;SDS011;29429;51.074;13.764;2022-10-16T17:11:24;7.88;;;2.78;;